createdAt,value
2023-05-15T00:02:14.240Z,12.45
2023-05-15T00:04:41.870Z,11.75
2023-05-15T00:07:09.760Z,10.93
2023-05-15T00:09:38.932Z,11.23
2023-05-15T00:12:07.133Z,12.43
2023-05-15T00:14:34.949Z,12.15
2023-05-15T00:17:02.595Z,10.65
2023-05-15T00:19:30.184Z,10.40
2023-05-15T00:21:57.690Z,11.70
2023-05-15T00:24:25.190Z,12.30
2023-05-15T00:26:54.051Z,15.32
2023-05-15T00:29:21.612Z,10.27
2023-05-15T00:31:49.177Z,10.53
2023-05-15T00:34:16.729Z,9.98
2023-05-15T00:36:45.019Z,10.77
2023-05-15T00:39:12.704Z,10.57
2023-05-15T00:41:42.706Z,10.18
2023-05-15T00:44:13.479Z,10.27
2023-05-15T00:46:41.737Z,11.05
2023-05-15T00:49:13.407Z,11.82
2023-05-15T00:51:42.203Z,11.57
2023-05-15T00:54:11.399Z,13.45
2023-05-15T00:56:40.069Z,11.13
2023-05-15T00:59:08.555Z,11.95
2023-05-15T01:01:37.858Z,10.68
2023-05-15T01:04:06.043Z,12.70
2023-05-15T01:06:33.911Z,11.73
2023-05-15T01:09:03.903Z,11.93
2023-05-15T01:11:36.391Z,11.55
2023-05-15T01:14:06.426Z,11.18
2023-05-15T01:16:34.441Z,12.48
2023-05-15T01:19:05.008Z,11.23
2023-05-15T01:22:20.617Z,11.07
2023-05-15T01:25:19.320Z,11.02
2023-05-15T01:27:51.266Z,11.07
2023-05-15T01:30:23.557Z,11.70
2023-05-15T01:32:56.564Z,12.38
2023-05-15T01:35:29.767Z,11.43
2023-05-15T01:38:06.745Z,10.63
2023-05-15T01:40:35.035Z,12.68
2023-05-15T01:43:09.945Z,14.43
2023-05-15T01:45:37.981Z,12.07
2023-05-15T01:48:09.562Z,11.63
2023-05-15T01:50:39.626Z,13.15
2023-05-15T01:53:10.389Z,11.70
2023-05-15T01:55:39.712Z,11.77
2023-05-15T01:58:10.012Z,11.85
2023-05-15T02:00:39.307Z,14.53
2023-05-15T02:03:07.953Z,12.02
2023-05-15T02:05:36.016Z,10.98
2023-05-15T02:08:05.064Z,12.30
2023-05-15T02:10:34.065Z,11.13
2023-05-15T02:13:02.317Z,10.63
2023-05-15T02:15:31.644Z,13.50
2023-05-15T02:17:59.252Z,12.23
2023-05-15T02:20:26.841Z,11.63
2023-05-15T02:22:54.997Z,11.98
2023-05-15T02:25:33.218Z,11.50
2023-05-15T02:28:02.621Z,11.48
2023-05-15T02:30:39.333Z,13.80
2023-05-15T02:33:17.163Z,11.93
2023-05-15T02:35:53.187Z,12.88
2023-05-15T02:38:27.441Z,13.13
2023-05-15T02:40:57.657Z,12.82
2023-05-15T02:43:27.222Z,14.15
2023-05-15T02:45:57.911Z,13.05
2023-05-15T02:48:27.029Z,12.63
2023-05-15T02:50:54.913Z,12.37
2023-05-15T02:53:22.941Z,14.10
2023-05-15T02:55:50.595Z,12.30
2023-05-15T02:58:18.277Z,12.10
2023-05-15T03:00:45.852Z,11.23
2023-05-15T03:03:14.694Z,12.07
2023-05-15T03:05:42.383Z,12.75
2023-05-15T03:08:10.086Z,16.67
2023-05-15T03:10:37.591Z,17.50
2023-05-15T03:13:05.208Z,13.45
2023-05-15T03:15:32.814Z,12.40
2023-05-15T03:18:00.478Z,15.07
2023-05-15T03:20:29.759Z,15.40
2023-05-15T03:22:57.402Z,13.65
2023-05-15T03:25:25.345Z,14.15
2023-05-15T03:27:53.020Z,12.97
2023-05-15T03:30:20.701Z,13.60
2023-05-15T03:32:48.325Z,13.75
2023-05-15T03:35:16.024Z,14.23
2023-05-15T03:37:45.805Z,14.60
2023-05-15T03:40:14.969Z,14.07
2023-05-15T03:42:42.620Z,15.48
2023-05-15T03:45:10.813Z,14.85
2023-05-15T03:47:38.426Z,15.15
2023-05-15T03:50:07.002Z,15.93
2023-05-15T03:52:34.660Z,15.23
2023-05-15T03:55:03.804Z,15.77
2023-05-15T03:57:32.871Z,15.82
2023-05-15T04:00:01.302Z,16.40
2023-05-15T04:02:28.940Z,14.68
2023-05-15T04:04:56.582Z,14.93
2023-05-15T04:07:24.127Z,16.50
2023-05-15T04:09:51.678Z,16.10
2023-05-15T04:12:20.553Z,15.88
2023-05-15T04:14:48.123Z,13.23
2023-05-15T04:17:15.694Z,14.57
2023-05-15T04:19:43.285Z,13.30
2023-05-15T04:22:10.860Z,15.23
2023-05-15T04:24:38.414Z,15.02
2023-05-15T04:27:06.845Z,15.65
2023-05-15T04:29:35.820Z,19.60
2023-05-15T04:32:03.712Z,14.52
2023-05-15T04:34:31.290Z,13.38
2023-05-15T04:36:58.919Z,15.02
2023-05-15T04:39:26.408Z,15.98
2023-05-15T04:41:53.970Z,13.90
2023-05-15T04:44:21.545Z,14.45
2023-05-15T04:46:50.409Z,15.85
2023-05-15T04:49:17.976Z,14.35
2023-05-15T04:51:45.487Z,16.30
2023-05-15T04:54:13.010Z,15.40
2023-05-15T04:56:40.614Z,14.40
2023-05-15T04:59:08.469Z,17.20
2023-05-15T05:01:36.023Z,16.23
2023-05-15T05:04:04.899Z,14.98
2023-05-15T05:06:32.548Z,13.03
2023-05-15T05:09:00.068Z,15.20
2023-05-15T05:11:27.628Z,12.85
2023-05-15T05:13:55.143Z,16.10
2023-05-15T05:16:22.824Z,16.45
2023-05-15T05:18:50.500Z,16.93
2023-05-15T05:21:19.448Z,16.38
2023-05-15T05:23:47.215Z,16.10
2023-05-15T05:26:14.800Z,17.10
2023-05-15T05:28:42.286Z,15.27
2023-05-15T05:31:09.841Z,18.87
2023-05-15T05:33:37.387Z,18.25
2023-05-15T05:36:06.327Z,14.93
2023-05-15T05:38:35.472Z,13.35
2023-05-15T05:41:03.474Z,13.05
2023-05-15T05:43:32.272Z,13.87
2023-05-15T05:45:59.860Z,13.98
2023-05-15T05:48:27.583Z,16.80
2023-05-15T05:50:55.545Z,13.38
2023-05-15T05:53:23.265Z,16.40
2023-05-15T05:55:52.409Z,13.40
2023-05-15T05:58:25.455Z,14.50
2023-05-15T06:00:53.989Z,14.60
2023-05-15T06:03:22.298Z,13.45
2023-05-15T06:05:49.938Z,12.05
2023-05-15T06:08:18.013Z,12.57
2023-05-15T06:10:45.559Z,17.88
2023-05-15T06:13:14.718Z,11.85
2023-05-15T06:15:42.502Z,10.65
2023-05-15T06:18:10.115Z,11.27
2023-05-15T06:20:38.212Z,9.43
2023-05-15T06:23:05.740Z,9.30
2023-05-15T06:25:33.260Z,10.43
2023-05-15T06:28:01.023Z,11.35
2023-05-15T06:30:29.934Z,11.88
2023-05-15T06:32:57.533Z,10.10
2023-05-15T06:35:25.201Z,9.52
2023-05-15T06:37:53.260Z,9.30
2023-05-15T06:40:21.614Z,9.13
2023-05-15T06:42:49.187Z,9.27
2023-05-15T06:45:16.867Z,10.90
2023-05-15T06:47:45.770Z,11.70
2023-05-15T06:50:13.346Z,10.80
2023-05-15T06:52:40.839Z,9.82
2023-05-15T06:55:09.106Z,8.95
2023-05-15T06:57:36.692Z,10.60
2023-05-15T07:00:05.742Z,7.97
2023-05-15T07:02:33.314Z,8.93
2023-05-15T07:05:02.248Z,8.57
2023-05-15T07:07:29.841Z,8.23
2023-05-15T07:09:57.356Z,11.97
2023-05-15T07:12:24.860Z,9.40
2023-05-15T07:14:52.407Z,7.70
2023-05-15T07:17:20.166Z,10.95
2023-05-15T07:19:47.707Z,7.63
2023-05-15T07:22:17.366Z,9.43
2023-05-15T07:24:44.896Z,6.20
2023-05-15T07:27:12.457Z,7.20
2023-05-15T07:29:39.978Z,6.55
2023-05-15T07:32:08.136Z,6.22
2023-05-15T07:34:35.742Z,6.27
2023-05-15T07:37:03.531Z,6.07
2023-05-15T07:39:32.427Z,7.85
2023-05-15T07:42:00.091Z,7.22
2023-05-15T07:44:27.677Z,6.93
2023-05-15T07:46:56.218Z,9.23
2023-05-15T07:49:23.729Z,7.35
2023-05-15T07:51:51.371Z,7.53
2023-05-15T07:54:18.909Z,9.07
2023-05-15T07:56:47.833Z,8.00
2023-05-15T07:59:16.013Z,6.73
2023-05-15T08:01:43.630Z,6.43
2023-05-15T08:04:11.192Z,8.05
2023-05-15T08:06:39.156Z,5.80
2023-05-15T08:09:06.682Z,6.15
2023-05-15T08:11:34.523Z,6.40
2023-05-15T08:14:03.493Z,6.60
2023-05-15T08:16:31.141Z,6.25
2023-05-15T08:19:01.542Z,6.75
2023-05-15T08:21:29.464Z,5.75
2023-05-15T08:23:57.002Z,7.67
2023-05-15T08:26:24.638Z,7.72
2023-05-15T08:28:52.159Z,5.53
2023-05-15T08:31:21.056Z,6.05
2023-05-15T08:33:48.657Z,5.95
2023-05-15T08:36:18.121Z,7.23
2023-05-15T08:38:45.736Z,7.05
2023-05-15T08:41:38.820Z,6.00
2023-05-15T08:44:10.392Z,7.05
2023-05-15T08:46:39.772Z,6.30
2023-05-15T08:49:14.008Z,7.07
2023-05-15T08:51:41.868Z,6.05
2023-05-15T08:54:10.033Z,9.45
2023-05-15T08:56:37.649Z,5.75
2023-05-15T08:59:05.418Z,7.03
2023-05-15T09:01:34.659Z,6.20
2023-05-15T09:04:03.963Z,6.05
2023-05-15T09:06:33.432Z,5.28
2023-05-15T09:09:02.213Z,5.60
2023-05-15T09:11:31.726Z,7.95
2023-05-15T09:13:59.551Z,7.27
2023-05-15T09:16:27.212Z,6.75
2023-05-15T09:18:55.241Z,6.95
2023-05-15T09:21:25.316Z,8.07
2023-05-15T09:23:53.213Z,6.68
2023-05-15T09:26:21.457Z,6.07
2023-05-15T09:28:49.514Z,6.00
2023-05-15T09:31:20.301Z,5.30
2023-05-15T09:33:47.883Z,6.97
2023-05-15T09:36:24.198Z,6.22
2023-05-15T09:38:59.601Z,6.93
2023-05-15T09:41:28.270Z,6.38
2023-05-15T09:43:56.897Z,6.43
2023-05-15T09:46:24.986Z,6.53
2023-05-15T09:48:55.689Z,6.13
2023-05-15T09:51:24.931Z,5.53
2023-05-15T09:53:54.140Z,7.93
2023-05-15T09:56:21.977Z,7.18
2023-05-15T09:58:56.295Z,5.55
2023-05-15T10:01:25.017Z,5.40
2023-05-15T10:03:59.171Z,7.47
2023-05-15T10:06:28.297Z,6.53
2023-05-15T10:08:58.421Z,7.57
2023-05-15T10:11:27.159Z,6.88
2023-05-15T10:13:54.813Z,6.03
2023-05-15T10:16:23.296Z,6.40
2023-05-15T10:18:53.369Z,7.40
2023-05-15T10:21:21.442Z,5.55
2023-05-15T10:23:51.759Z,7.43
2023-05-15T10:26:24.667Z,7.00
2023-05-15T10:28:53.897Z,5.93
2023-05-15T10:31:22.484Z,7.40
2023-05-15T10:33:52.365Z,5.32
2023-05-15T10:36:20.461Z,6.70
2023-05-15T10:38:50.564Z,8.65
2023-05-15T10:41:18.853Z,8.43
2023-05-15T10:43:47.211Z,7.10
2023-05-15T10:46:14.813Z,7.07
2023-05-15T10:48:42.749Z,8.55
2023-05-15T10:51:16.406Z,7.82
2023-05-15T10:53:44.449Z,7.17
2023-05-15T10:56:17.497Z,11.88
2023-05-15T10:58:47.718Z,5.80
2023-05-15T11:01:29.348Z,8.32
2023-05-15T11:04:11.839Z,8.95
2023-05-15T11:06:40.547Z,5.60
2023-05-15T11:09:39.298Z,8.05
2023-05-15T11:12:10.354Z,7.07
2023-05-15T11:14:39.734Z,6.05
2023-05-15T11:17:09.271Z,6.40
2023-05-15T11:19:39.404Z,6.97
2023-05-15T11:22:21.007Z,6.45
2023-05-15T11:24:51.335Z,5.38
2023-05-15T11:27:21.619Z,6.38
2023-05-15T11:30:09.945Z,6.65
2023-05-15T11:32:51.655Z,6.50
2023-05-15T11:35:21.683Z,5.95
2023-05-15T11:37:51.154Z,6.47
2023-05-15T11:40:24.734Z,8.73
2023-05-15T11:43:07.567Z,5.72
2023-05-15T11:45:36.794Z,7.93
2023-05-15T11:48:06.851Z,6.40
2023-05-15T11:50:35.388Z,7.82
2023-05-15T11:53:05.093Z,7.95
2023-05-15T11:55:34.158Z,7.28
2023-05-15T11:58:04.108Z,6.97
2023-05-15T12:00:31.962Z,6.43
2023-05-15T12:02:59.638Z,7.20
2023-05-15T12:05:27.237Z,5.45
2023-05-15T12:07:54.822Z,6.10
2023-05-15T12:10:22.352Z,5.87
2023-05-15T12:12:50.008Z,6.00
2023-05-15T12:15:18.883Z,9.88
2023-05-15T12:17:46.868Z,11.48
2023-05-15T12:20:18.240Z,5.78
2023-05-15T12:22:46.005Z,6.63
2023-05-15T12:25:15.757Z,7.28
2023-05-15T12:27:43.876Z,6.63
2023-05-15T12:30:14.420Z,8.02
2023-05-15T12:32:43.660Z,5.60
2023-05-15T12:35:11.975Z,6.53
2023-05-15T12:37:40.123Z,6.50
2023-05-15T12:40:10.136Z,8.70
2023-05-15T12:42:42.044Z,9.63
2023-05-15T12:45:14.288Z,9.60
2023-05-15T12:47:44.877Z,9.83
2023-05-15T12:50:15.771Z,10.10
2023-05-15T12:52:47.893Z,11.32
2023-05-15T12:55:19.035Z,12.48
2023-05-15T12:57:47.128Z,13.60
2023-05-15T13:00:15.983Z,17.03
2023-05-15T13:02:46.076Z,15.10
2023-05-15T13:05:14.738Z,16.08
2023-05-15T13:07:42.954Z,18.35
2023-05-15T13:10:11.305Z,15.02
2023-05-15T13:12:40.357Z,19.23
2023-05-15T13:15:09.077Z,16.33
2023-05-15T13:17:36.669Z,18.80
2023-05-15T13:20:06.826Z,18.75
2023-05-15T13:22:34.410Z,19.35
2023-05-15T13:25:02.032Z,17.30
2023-05-15T13:27:29.542Z,16.15
2023-05-15T13:29:57.206Z,15.18
2023-05-15T13:32:24.769Z,16.85
2023-05-15T13:34:54.714Z,17.23
2023-05-15T13:37:23.609Z,17.83
2023-05-15T13:39:51.109Z,19.17
2023-05-15T13:42:18.649Z,18.38
2023-05-15T13:44:46.189Z,17.60
2023-05-15T13:47:13.821Z,20.25
2023-05-15T13:49:41.740Z,18.13
2023-05-15T13:52:09.430Z,17.90
2023-05-15T13:54:38.341Z,18.08
2023-05-15T13:57:06.445Z,19.15
2023-05-15T13:59:34.008Z,19.38
2023-05-15T14:02:01.621Z,17.80
2023-05-15T14:04:29.138Z,23.65
2023-05-15T14:06:56.752Z,17.90
2023-05-15T14:09:24.530Z,22.05
2023-05-15T14:11:53.590Z,20.52
2023-05-15T14:14:21.243Z,21.17
2023-05-15T14:16:49.045Z,19.33
2023-05-15T14:19:16.895Z,27.05
2023-05-15T14:21:44.541Z,19.23
2023-05-15T14:24:12.070Z,23.65
2023-05-15T14:26:39.693Z,20.93
2023-05-15T14:29:08.587Z,18.55
2023-05-15T14:31:36.192Z,18.90
2023-05-15T14:34:05.509Z,15.60
2023-05-15T14:36:33.105Z,11.73
2023-05-15T14:39:00.832Z,12.40
2023-05-15T14:41:28.406Z,10.57
2023-05-15T14:43:56.043Z,11.15
2023-05-15T14:46:25.798Z,15.75
2023-05-15T14:48:53.354Z,10.07
2023-05-15T14:51:20.906Z,10.80
2023-05-15T14:53:48.513Z,12.38
2023-05-15T14:56:16.103Z,12.00
2023-05-15T14:58:43.734Z,11.70
2023-05-15T15:01:11.392Z,12.90
2023-05-15T15:03:40.408Z,15.93
2023-05-15T15:06:08.037Z,10.77
2023-05-15T15:08:36.286Z,12.30
2023-05-15T15:11:04.051Z,12.93
2023-05-15T15:13:31.558Z,11.93
2023-05-15T15:15:59.127Z,10.87
2023-05-15T15:18:26.699Z,13.07
2023-05-15T15:20:55.584Z,10.45
2023-05-15T15:23:23.682Z,10.00
2023-05-15T15:25:51.237Z,11.93
2023-05-15T15:28:18.821Z,9.63
2023-05-15T15:30:46.365Z,10.13
2023-05-15T15:33:13.932Z,9.95
2023-05-15T15:35:41.519Z,8.10
2023-05-15T15:38:11.696Z,8.23
2023-05-15T15:40:39.209Z,7.43
2023-05-15T15:43:06.966Z,6.93
2023-05-15T15:45:34.580Z,7.15
2023-05-15T15:48:02.192Z,8.25
2023-05-15T15:50:29.778Z,7.10
2023-05-15T15:52:57.343Z,6.23
2023-05-15T15:55:26.230Z,7.38
2023-05-15T15:57:53.832Z,7.28
2023-05-15T16:00:21.625Z,5.38
2023-05-15T16:02:49.298Z,6.28
2023-05-15T16:05:16.983Z,6.10
2023-05-15T16:07:44.554Z,6.18
2023-05-15T16:10:27.488Z,7.22
2023-05-15T16:12:56.877Z,6.45
2023-05-15T16:15:24.785Z,7.18
2023-05-15T16:17:53.739Z,6.70
2023-05-15T16:20:22.038Z,9.68
2023-05-15T16:22:49.972Z,8.15
2023-05-15T16:25:17.648Z,8.23
2023-05-15T16:27:45.273Z,8.50
2023-05-15T16:30:15.168Z,8.87
2023-05-15T16:32:42.705Z,7.07
2023-05-15T16:35:10.598Z,10.40
2023-05-15T16:37:38.379Z,8.50
2023-05-15T16:40:07.061Z,10.35
2023-05-15T16:42:36.660Z,11.47
2023-05-15T16:45:04.937Z,11.40
2023-05-15T16:47:34.758Z,10.10
2023-05-15T16:50:03.472Z,11.90
2023-05-15T16:52:30.982Z,11.23
2023-05-15T16:54:58.714Z,10.40
2023-05-15T16:57:26.252Z,9.02
2023-05-15T16:59:53.782Z,12.25
2023-05-15T17:02:21.469Z,10.07
2023-05-15T17:04:50.367Z,11.10
2023-05-15T17:07:17.881Z,11.10
2023-05-15T17:09:45.515Z,9.23
2023-05-15T17:12:13.110Z,12.48
2023-05-15T17:14:40.671Z,11.38
2023-05-15T17:17:08.229Z,9.23
2023-05-15T17:19:35.821Z,9.33
2023-05-15T17:22:04.830Z,9.75
2023-05-15T17:24:46.380Z,14.00
2023-05-15T17:27:18.260Z,12.85
2023-05-15T17:29:46.015Z,12.88
2023-05-15T17:32:14.260Z,10.60
2023-05-15T17:34:41.878Z,11.02
2023-05-15T17:37:11.783Z,10.30
2023-05-15T17:39:39.303Z,10.98
2023-05-15T17:42:06.891Z,13.52
2023-05-15T17:44:34.493Z,10.87
2023-05-15T17:47:02.195Z,10.40
2023-05-15T17:49:29.781Z,12.70
2023-05-15T17:51:57.318Z,11.05
2023-05-15T17:54:26.219Z,12.05
2023-05-15T17:56:53.827Z,8.53
2023-05-15T17:59:21.341Z,9.90
2023-05-15T18:01:48.949Z,10.57
2023-05-15T18:04:16.625Z,11.18
2023-05-15T18:06:44.422Z,9.15
2023-05-15T18:09:12.019Z,8.77
2023-05-15T18:11:40.889Z,9.10
2023-05-15T18:14:08.466Z,11.45
2023-05-15T18:16:36.155Z,10.13
2023-05-15T18:19:04.092Z,11.18
2023-05-15T18:21:31.658Z,11.43
2023-05-15T18:23:59.189Z,12.38
2023-05-15T18:26:28.986Z,9.45
2023-05-15T18:28:57.959Z,10.80
2023-05-15T18:31:25.574Z,11.65
2023-05-15T18:33:53.169Z,13.10
2023-05-15T18:36:20.668Z,10.38
2023-05-15T18:38:48.351Z,9.68
2023-05-15T18:41:15.903Z,11.25
2023-05-15T18:43:43.481Z,9.50
2023-05-15T18:46:12.390Z,11.50
2023-05-15T18:48:39.875Z,9.38
2023-05-15T18:51:07.411Z,16.02
2023-05-15T18:53:34.899Z,11.55
2023-05-15T18:56:02.570Z,9.77
2023-05-15T18:58:30.116Z,11.23
2023-05-15T19:00:57.816Z,8.18
2023-05-15T19:03:26.939Z,9.27
2023-05-15T19:05:54.484Z,9.73
2023-05-15T19:08:22.043Z,8.23
2023-05-15T19:10:49.959Z,9.60
2023-05-15T19:13:17.486Z,13.20
2023-05-15T19:15:51.248Z,11.85
2023-05-15T19:18:18.909Z,12.30
2023-05-15T19:20:51.915Z,10.07
2023-05-15T19:23:20.464Z,10.27
2023-05-15T19:25:48.040Z,10.75
2023-05-15T19:28:15.717Z,11.80
2023-05-15T19:30:43.444Z,16.75
2023-05-15T19:33:12.753Z,9.63
2023-05-15T19:35:40.544Z,14.93
2023-05-15T19:38:09.457Z,11.50
2023-05-15T19:40:37.303Z,10.43
2023-05-15T19:43:04.968Z,9.88
2023-05-15T19:45:32.534Z,10.95
2023-05-15T19:48:00.296Z,12.00
2023-05-15T19:50:28.182Z,10.82
2023-05-15T19:52:55.828Z,11.70
2023-05-15T19:55:25.078Z,11.77
2023-05-15T19:57:56.670Z,12.23
2023-05-15T20:00:25.007Z,16.37
2023-05-15T20:02:53.721Z,12.45
2023-05-15T20:05:21.434Z,14.73
2023-05-15T20:07:49.064Z,15.63
2023-05-15T20:10:18.425Z,11.23
2023-05-15T20:12:47.687Z,14.73
2023-05-15T20:15:15.693Z,15.68
2023-05-15T20:17:44.270Z,13.05
2023-05-15T20:20:12.957Z,14.60
2023-05-15T20:22:45.822Z,14.05
2023-05-15T20:25:15.087Z,15.73
2023-05-15T20:27:42.589Z,15.75
2023-05-15T20:30:12.563Z,16.20
2023-05-15T20:32:40.217Z,19.38
2023-05-15T20:35:08.949Z,16.85
2023-05-15T20:37:36.910Z,20.43
2023-05-15T20:40:05.861Z,18.02
2023-05-15T20:42:33.631Z,17.15
2023-05-15T20:45:01.180Z,20.88
2023-05-15T20:47:30.065Z,19.75
2023-05-15T20:49:57.806Z,20.80
2023-05-15T20:52:25.357Z,16.98
2023-05-15T20:54:52.949Z,19.67
2023-05-15T20:57:20.758Z,20.00
2023-05-15T20:59:48.330Z,20.50
2023-05-15T21:02:16.055Z,23.50
2023-05-15T21:04:45.045Z,21.33
2023-05-15T21:07:12.618Z,20.17
2023-05-15T21:09:40.220Z,21.92
2023-05-15T21:12:08.572Z,22.40
2023-05-15T21:14:36.222Z,27.20
2023-05-15T21:17:03.753Z,21.95
2023-05-15T21:19:31.281Z,20.08
2023-05-15T21:22:00.175Z,22.17
2023-05-15T21:24:27.705Z,20.13
2023-05-15T21:26:55.272Z,16.50
2023-05-15T21:29:22.771Z,20.10
2023-05-15T21:31:50.385Z,17.58
2023-05-15T21:34:18.102Z,16.13
2023-05-15T21:36:45.859Z,17.13
2023-05-15T21:39:15.236Z,19.50
2023-05-15T21:41:42.786Z,19.67
2023-05-15T21:44:10.336Z,17.25
2023-05-15T21:46:38.131Z,16.52
2023-05-15T21:49:05.648Z,14.48
2023-05-15T21:51:34.462Z,15.53
2023-05-15T21:54:02.018Z,16.13
2023-05-15T21:56:30.934Z,13.73
2023-05-15T21:58:58.484Z,14.07
2023-05-15T22:01:26.177Z,13.15
2023-05-15T22:03:53.740Z,15.63
2023-05-15T22:06:21.320Z,17.90
2023-05-15T22:08:48.940Z,13.55
2023-05-15T22:11:17.128Z,12.98
2023-05-15T22:13:46.297Z,14.63
2023-05-15T22:16:14.236Z,13.53
2023-05-15T22:18:45.097Z,11.82
2023-05-15T22:21:12.768Z,14.40
2023-05-15T22:23:40.571Z,12.18
2023-05-15T22:26:08.065Z,12.65
2023-05-15T22:28:35.616Z,12.17
2023-05-15T22:31:05.096Z,13.88
2023-05-15T22:33:32.615Z,11.25
2023-05-15T22:36:00.205Z,10.57
2023-05-15T22:38:28.257Z,11.10
2023-05-15T22:40:55.891Z,9.77
2023-05-15T22:43:23.554Z,9.70
2023-05-15T22:45:52.186Z,9.35
2023-05-15T22:48:23.150Z,8.98
2023-05-15T22:50:52.062Z,10.73
2023-05-15T22:53:19.559Z,8.47
2023-05-15T22:55:47.161Z,8.73
2023-05-15T22:58:14.953Z,10.27
2023-05-15T23:00:42.534Z,8.68
2023-05-15T23:03:10.112Z,9.20
2023-05-15T23:05:39.215Z,7.07
2023-05-15T23:08:06.782Z,9.13
2023-05-15T23:10:34.319Z,11.25
2023-05-15T23:13:01.830Z,7.32
2023-05-15T23:15:29.460Z,9.07
2023-05-15T23:17:57.604Z,6.57
2023-05-15T23:20:25.759Z,8.30
2023-05-15T23:22:54.938Z,8.30
2023-05-15T23:25:22.650Z,9.82
2023-05-15T23:27:50.746Z,8.13
2023-05-15T23:30:18.620Z,7.13
2023-05-15T23:32:46.169Z,7.53
2023-05-15T23:35:13.735Z,6.97
2023-05-15T23:37:41.289Z,7.30
2023-05-15T23:40:11.521Z,8.27
2023-05-15T23:42:39.025Z,8.70
2023-05-15T23:45:08.002Z,7.32
2023-05-15T23:47:35.693Z,7.35
2023-05-15T23:50:03.716Z,5.95
2023-05-15T23:52:31.452Z,7.70
2023-05-15T23:54:59.063Z,8.67
2023-05-15T23:57:27.962Z,11.38
2023-05-15T23:59:55.482Z,7.03
